createdAt,value
2023-05-05T00:02:44.845Z,5.90
2023-05-05T00:05:50.427Z,6.60
2023-05-05T00:08:52.207Z,6.35
2023-05-05T00:11:54.021Z,10.57
2023-05-05T00:14:55.878Z,6.80
2023-05-05T00:17:57.785Z,6.80
2023-05-05T00:20:59.744Z,7.28
2023-05-05T00:24:05.002Z,7.22
2023-05-05T00:27:06.813Z,6.72
2023-05-05T00:30:09.135Z,7.10
2023-05-05T00:33:11.381Z,6.70
2023-05-05T00:36:13.805Z,7.57
2023-05-05T00:39:16.574Z,7.25
2023-05-05T00:42:19.177Z,9.02
2023-05-05T00:45:21.057Z,9.23
2023-05-05T00:48:25.549Z,6.35
2023-05-05T00:51:28.427Z,6.28
2023-05-05T00:54:30.490Z,5.65
2023-05-05T00:57:33.799Z,7.50
2023-05-05T01:00:35.956Z,9.45
2023-05-05T01:03:39.473Z,8.30
2023-05-05T01:07:08.415Z,8.23
2023-05-05T01:10:20.463Z,7.13
2023-05-05T01:13:54.477Z,6.35
2023-05-05T01:17:00.084Z,8.95
2023-05-05T01:20:26.409Z,6.18
2023-05-05T01:24:02.333Z,5.97
2023-05-05T01:27:43.315Z,8.05
2023-05-05T01:31:22.758Z,8.93
2023-05-05T01:34:29.042Z,8.77
2023-05-05T01:38:17.399Z,7.22
2023-05-05T01:41:39.621Z,11.55
2023-05-05T01:44:44.948Z,7.20
2023-05-05T01:47:47.742Z,8.65
2023-05-05T01:50:52.296Z,11.38
2023-05-05T01:53:57.759Z,7.63
2023-05-05T01:57:02.182Z,8.40
2023-05-05T02:00:04.862Z,6.60
2023-05-05T02:03:18.726Z,5.80
2023-05-05T02:06:22.944Z,7.22
2023-05-05T02:09:29.487Z,7.15
2023-05-05T02:12:32.370Z,8.52
2023-05-05T02:15:36.027Z,6.93
2023-05-05T02:18:38.964Z,6.65
2023-05-05T02:21:41.875Z,6.32
2023-05-05T02:24:44.570Z,11.65
2023-05-05T02:27:48.172Z,5.57
2023-05-05T02:31:00.674Z,10.27
2023-05-05T02:34:05.343Z,8.48
2023-05-05T02:37:12.844Z,10.10
2023-05-05T02:40:23.812Z,7.03
2023-05-05T02:43:31.268Z,6.45
2023-05-05T02:46:33.466Z,7.65
2023-05-05T02:49:35.396Z,6.47
2023-05-05T02:52:37.660Z,6.18
2023-05-05T02:56:01.149Z,7.25
2023-05-05T02:59:16.574Z,4.75
2023-05-05T03:02:27.819Z,5.13
2023-05-05T03:05:38.729Z,7.85
2023-05-05T03:08:56.233Z,5.75
2023-05-05T03:12:05.702Z,5.85
2023-05-05T03:15:16.789Z,5.82
2023-05-05T03:18:20.457Z,6.00
2023-05-05T03:21:29.446Z,6.72
2023-05-05T03:24:31.352Z,5.80
2023-05-05T03:27:39.060Z,6.18
2023-05-05T03:30:42.109Z,6.80
2023-05-05T03:33:44.906Z,7.25
2023-05-05T03:36:46.778Z,6.80
2023-05-05T03:39:50.548Z,6.68
2023-05-05T03:42:52.762Z,6.85
2023-05-05T03:45:54.949Z,6.90
2023-05-05T03:48:57.400Z,7.68
2023-05-05T03:52:00.773Z,7.00
2023-05-05T03:55:03.272Z,9.98
2023-05-05T03:58:05.243Z,6.38
2023-05-05T04:01:07.252Z,7.68
2023-05-05T04:04:09.669Z,8.95
2023-05-05T04:07:11.694Z,8.55
2023-05-05T04:10:13.506Z,7.88
2023-05-05T04:13:15.520Z,9.95
2023-05-05T04:16:17.412Z,14.95
2023-05-05T04:19:19.244Z,6.22
2023-05-05T04:22:21.486Z,6.38
2023-05-05T04:25:23.888Z,7.15
2023-05-05T04:28:25.828Z,7.20
2023-05-05T04:31:27.788Z,9.85
2023-05-05T04:34:29.715Z,13.32
2023-05-05T04:37:31.569Z,8.70
2023-05-05T04:40:38.165Z,8.90
2023-05-05T04:43:41.046Z,11.30
2023-05-05T04:46:42.869Z,13.25
2023-05-05T04:49:45.174Z,7.15
2023-05-05T04:52:46.959Z,11.20
2023-05-05T04:55:48.819Z,8.98
2023-05-05T04:58:50.909Z,14.02
2023-05-05T05:01:52.720Z,16.70
2023-05-05T05:04:54.559Z,16.48
2023-05-05T05:07:56.329Z,13.05
2023-05-05T05:10:59.632Z,14.38
2023-05-05T05:14:01.472Z,13.50
2023-05-05T05:17:04.819Z,17.17
2023-05-05T05:20:08.234Z,13.07
2023-05-05T05:23:10.909Z,10.23
2023-05-05T05:26:17.654Z,17.90
2023-05-05T05:29:20.489Z,10.93
2023-05-05T05:32:23.159Z,7.30
2023-05-05T05:35:25.012Z,9.15
2023-05-05T05:38:26.797Z,7.88
2023-05-05T05:41:31.884Z,11.85
2023-05-05T05:44:33.871Z,11.48
2023-05-05T05:47:36.590Z,8.00
2023-05-05T05:50:38.388Z,6.85
2023-05-05T05:53:40.556Z,13.13
2023-05-05T05:56:43.508Z,5.10
2023-05-05T05:59:46.383Z,6.47
2023-05-05T06:02:48.466Z,7.15
2023-05-05T06:05:53.624Z,6.88
2023-05-05T06:08:55.816Z,6.45
2023-05-05T06:11:57.729Z,9.25
2023-05-05T06:14:59.658Z,13.02
2023-05-05T06:18:01.653Z,7.22
2023-05-05T06:21:03.436Z,5.15
2023-05-05T06:24:06.341Z,10.10
2023-05-05T06:27:09.859Z,6.22
2023-05-05T06:30:12.198Z,11.75
2023-05-05T06:33:13.959Z,9.15
2023-05-05T06:36:15.827Z,9.07
2023-05-05T06:39:17.688Z,9.98
2023-05-05T06:42:19.396Z,7.70
2023-05-05T06:45:21.789Z,7.72
2023-05-05T06:48:23.736Z,10.02
2023-05-05T06:51:27.672Z,19.50
2023-05-05T06:54:29.430Z,14.60
2023-05-05T06:57:31.331Z,8.65
2023-05-05T07:00:34.109Z,12.45
2023-05-05T07:03:35.908Z,6.60
2023-05-05T07:06:37.696Z,7.25
2023-05-05T07:09:41.293Z,5.25
2023-05-05T07:12:43.069Z,6.80
2023-05-05T07:15:47.744Z,6.40
2023-05-05T07:18:49.557Z,7.20
2023-05-05T07:21:52.160Z,12.18
2023-05-05T07:24:53.961Z,6.45
2023-05-05T07:27:56.482Z,7.57
2023-05-05T07:30:58.337Z,8.57
2023-05-05T07:34:00.150Z,7.75
2023-05-05T07:37:02.031Z,4.65
2023-05-05T07:40:04.138Z,13.73
2023-05-05T07:43:05.987Z,6.22
2023-05-05T07:46:08.561Z,4.93
2023-05-05T07:49:10.439Z,4.60
2023-05-05T07:52:12.345Z,5.18
2023-05-05T07:55:14.073Z,4.30
2023-05-05T07:58:16.385Z,10.30
2023-05-05T08:01:18.447Z,8.00
2023-05-05T08:04:20.320Z,5.15
2023-05-05T08:07:22.086Z,10.57
2023-05-05T08:10:23.904Z,6.15
2023-05-05T08:13:25.760Z,7.68
2023-05-05T08:16:27.766Z,12.95
2023-05-05T08:19:29.823Z,8.35
2023-05-05T08:22:32.733Z,5.55
2023-05-05T08:25:34.453Z,3.67
2023-05-05T08:28:36.959Z,15.00
2023-05-05T08:31:38.817Z,11.45
2023-05-05T08:34:40.658Z,4.28
2023-05-05T08:37:42.535Z,5.47
2023-05-05T08:40:44.905Z,5.30
2023-05-05T08:43:48.226Z,5.68
2023-05-05T08:46:50.718Z,6.63
2023-05-05T08:49:55.749Z,8.43
2023-05-05T08:53:18.133Z,5.35
2023-05-05T08:56:24.233Z,3.80
2023-05-05T08:59:30.178Z,3.47
2023-05-05T09:02:32.994Z,4.43
2023-05-05T09:05:36.033Z,5.70
2023-05-05T09:08:38.602Z,6.40
2023-05-05T09:11:41.758Z,4.32
2023-05-05T09:14:43.438Z,4.40
2023-05-05T09:17:45.231Z,4.18
2023-05-05T09:20:47.045Z,3.30
2023-05-05T09:24:11.224Z,3.08
2023-05-05T09:27:23.194Z,7.15
2023-05-05T09:30:26.108Z,3.40
2023-05-05T09:33:31.570Z,6.95
2023-05-05T09:36:50.264Z,3.38
2023-05-05T09:39:55.812Z,5.22
2023-05-05T09:43:02.772Z,4.78
2023-05-05T09:49:15.588Z,4.85
2023-05-05T09:52:17.832Z,5.88
2023-05-05T09:55:19.767Z,3.58
2023-05-05T09:58:24.048Z,3.22
2023-05-05T10:01:28.914Z,4.78
2023-05-05T10:04:31.540Z,4.40
2023-05-05T10:07:34.123Z,3.50
2023-05-05T10:10:36.381Z,5.70
2023-05-05T10:13:42.184Z,3.00
2023-05-05T10:16:51.011Z,3.42
2023-05-05T10:19:57.415Z,3.75
2023-05-05T10:23:02.770Z,5.20
2023-05-05T10:26:07.732Z,3.28
2023-05-05T10:29:55.036Z,2.92
2023-05-05T10:36:29.246Z,4.97
2023-05-05T10:39:32.042Z,3.22
2023-05-05T10:42:33.805Z,5.82
2023-05-05T10:45:37.655Z,6.85
2023-05-05T10:48:51.404Z,3.15
2023-05-05T10:52:00.476Z,5.60
2023-05-05T10:55:05.003Z,6.63
2023-05-05T10:58:06.736Z,6.50
2023-05-05T11:01:09.445Z,7.00
2023-05-05T11:04:18.818Z,3.00
2023-05-05T11:07:23.986Z,3.25
2023-05-05T11:10:26.441Z,2.70
2023-05-05T11:13:28.713Z,6.63
2023-05-05T11:16:45.664Z,4.72
2023-05-05T11:19:48.257Z,3.42
2023-05-05T11:23:05.364Z,3.72
2023-05-05T11:26:07.343Z,3.63
2023-05-05T11:29:09.296Z,2.60
2023-05-05T11:32:13.141Z,3.65
2023-05-05T11:35:15.558Z,3.35
2023-05-05T11:38:21.128Z,4.10
2023-05-05T11:41:34.934Z,4.47
2023-05-05T11:44:36.823Z,5.53
2023-05-05T11:47:39.085Z,6.85
2023-05-05T11:50:40.992Z,4.28
2023-05-05T11:53:46.565Z,5.13
2023-05-05T11:56:53.694Z,3.33
2023-05-05T12:00:03.109Z,5.13
2023-05-05T12:03:07.142Z,3.80
2023-05-05T12:06:09.194Z,5.40
2023-05-05T12:09:19.918Z,3.72
2023-05-05T12:12:35.042Z,3.85
2023-05-05T12:15:37.431Z,4.22
2023-05-05T12:18:40.432Z,12.27
2023-05-05T12:21:45.668Z,4.55
2023-05-05T12:25:02.899Z,9.98
2023-05-05T12:28:06.629Z,4.17
2023-05-05T12:31:09.425Z,8.65
2023-05-05T12:34:12.271Z,4.03
2023-05-05T12:37:16.415Z,13.85
2023-05-05T12:40:51.937Z,5.00
2023-05-05T12:43:58.395Z,7.18
2023-05-05T12:47:00.127Z,5.03
2023-05-05T12:50:03.375Z,4.97
2023-05-05T12:53:05.121Z,7.10
2023-05-05T12:56:06.973Z,4.15
2023-05-05T12:59:21.382Z,5.13
2023-05-05T13:02:34.634Z,3.75
2023-05-05T13:05:36.714Z,6.95
2023-05-05T13:08:44.782Z,3.50
2023-05-05T13:11:46.597Z,5.85
2023-05-05T13:14:48.635Z,4.30
2023-05-05T13:17:50.414Z,3.67
2023-05-05T13:20:52.258Z,3.08
2023-05-05T13:23:54.827Z,3.38
2023-05-05T13:26:59.156Z,5.60
2023-05-05T13:30:01.285Z,5.20
2023-05-05T13:33:06.077Z,6.05
2023-05-05T13:36:08.209Z,4.63
2023-05-05T13:39:10.137Z,4.43
2023-05-05T13:42:11.932Z,8.77
2023-05-05T13:45:14.350Z,5.25
2023-05-05T13:48:16.380Z,2.70
2023-05-05T13:51:18.108Z,7.20
2023-05-05T13:54:20.458Z,5.82
2023-05-05T13:57:22.406Z,6.18
2023-05-05T14:00:24.352Z,5.65
2023-05-05T14:03:26.208Z,5.25
2023-05-05T14:06:28.145Z,3.97
2023-05-05T14:09:29.950Z,2.53
2023-05-05T14:12:32.360Z,3.47
2023-05-05T14:15:35.009Z,5.95
2023-05-05T14:18:36.727Z,3.50
2023-05-05T14:21:38.489Z,6.43
2023-05-05T14:24:40.220Z,3.47
2023-05-05T14:27:42.014Z,4.50
2023-05-05T14:30:43.827Z,5.68
2023-05-05T14:33:46.076Z,2.05
2023-05-05T14:36:47.849Z,10.98
2023-05-05T14:39:49.667Z,5.88
2023-05-05T14:42:51.564Z,3.03
2023-05-05T14:45:53.450Z,2.60
2023-05-05T14:48:55.479Z,3.63
2023-05-05T14:51:57.254Z,3.97
2023-05-05T14:54:59.172Z,4.70
2023-05-05T14:58:00.937Z,2.85
2023-05-05T15:01:02.737Z,3.47
2023-05-05T15:04:04.953Z,6.78
2023-05-05T15:07:06.968Z,3.63
2023-05-05T15:10:12.105Z,3.97
2023-05-05T15:13:13.945Z,8.77
2023-05-05T15:16:16.384Z,3.58
2023-05-05T15:19:18.059Z,2.38
2023-05-05T15:22:19.767Z,6.30
2023-05-05T15:25:21.763Z,4.18
2023-05-05T15:28:26.701Z,2.60
2023-05-05T15:31:28.413Z,2.90
2023-05-05T15:34:30.286Z,2.78
2023-05-05T15:37:32.348Z,9.48
2023-05-05T15:40:36.087Z,3.80
2023-05-05T15:43:37.807Z,3.78
2023-05-05T15:46:40.952Z,9.85
2023-05-05T15:49:42.777Z,8.52
2023-05-05T15:52:44.625Z,2.97
2023-05-05T15:55:46.871Z,5.15
2023-05-05T15:58:48.594Z,5.35
2023-05-05T16:01:50.263Z,4.30
2023-05-05T16:04:52.301Z,4.40
2023-05-05T16:07:54.156Z,10.32
2023-05-05T16:10:57.357Z,3.67
2023-05-05T16:13:59.202Z,7.00
2023-05-05T16:17:03.612Z,4.13
2023-05-05T16:20:06.629Z,5.50
2023-05-05T16:23:08.808Z,4.47
2023-05-05T16:26:10.543Z,4.80
2023-05-05T16:29:13.445Z,5.97
2023-05-05T16:32:15.127Z,4.10
2023-05-05T16:35:17.080Z,3.97
2023-05-05T16:38:18.794Z,4.45
2023-05-05T16:41:21.278Z,5.20
2023-05-05T16:44:23.055Z,3.35
2023-05-05T16:47:25.245Z,2.92
2023-05-05T16:50:27.051Z,3.70
2023-05-05T16:53:28.792Z,4.35
2023-05-05T16:56:30.565Z,3.38
2023-05-05T16:59:32.334Z,3.55
2023-05-05T17:02:35.369Z,3.83
2023-05-05T17:05:37.325Z,3.67
2023-05-05T17:08:39.223Z,7.55
2023-05-05T17:11:40.918Z,9.60
2023-05-05T17:14:42.973Z,7.93
2023-05-05T17:17:44.788Z,4.65
2023-05-05T17:20:46.556Z,5.03
2023-05-05T17:23:48.272Z,14.27
2023-05-05T17:26:50.595Z,17.17
2023-05-05T17:29:52.787Z,15.57
2023-05-05T17:32:54.797Z,19.20
2023-05-05T17:35:56.627Z,19.60
2023-05-05T17:38:58.477Z,33.75
2023-05-05T17:42:00.153Z,27.27
2023-05-05T17:45:05.331Z,24.42
2023-05-05T17:48:07.598Z,29.98
2023-05-05T17:51:09.332Z,24.25
2023-05-05T17:54:11.190Z,37.80
2023-05-05T17:57:13.342Z,47.88
2023-05-05T18:00:15.452Z,30.80
2023-05-05T18:03:17.555Z,21.58
2023-05-05T18:06:19.379Z,23.83
2023-05-05T18:09:21.334Z,20.92
2023-05-05T18:12:23.101Z,45.63
2023-05-05T18:15:25.046Z,52.00
2023-05-05T18:18:26.879Z,20.88
2023-05-05T18:21:29.536Z,13.27
2023-05-05T18:24:31.878Z,17.75
2023-05-05T18:27:34.356Z,24.83
2023-05-05T18:30:36.209Z,24.65
2023-05-05T18:33:38.012Z,32.58
2023-05-05T18:36:39.712Z,33.47
2023-05-05T18:39:43.798Z,24.25
2023-05-05T18:42:45.792Z,16.50
2023-05-05T18:45:47.566Z,17.73
2023-05-05T18:48:49.348Z,21.25
2023-05-05T18:51:51.133Z,13.70
2023-05-05T18:54:53.214Z,17.30
2023-05-05T18:57:55.081Z,10.85
2023-05-05T19:00:57.905Z,13.60
2023-05-05T19:03:59.837Z,8.57
2023-05-05T19:07:01.609Z,19.45
2023-05-05T19:10:07.226Z,14.48
2023-05-05T19:13:11.298Z,28.70
2023-05-05T19:16:13.112Z,20.17
2023-05-05T19:19:14.982Z,20.48
2023-05-05T19:22:20.981Z,25.75
2023-05-05T19:25:22.825Z,13.68
2023-05-05T19:28:24.588Z,11.38
2023-05-05T19:31:30.883Z,14.32
2023-05-05T19:34:33.136Z,9.60
2023-05-05T19:37:34.870Z,9.75
2023-05-05T19:40:40.089Z,12.95
2023-05-05T19:43:41.967Z,13.05
2023-05-05T19:46:43.803Z,11.20
2023-05-05T19:49:45.683Z,7.63
2023-05-05T19:52:47.425Z,7.07
2023-05-05T19:55:49.270Z,9.20
2023-05-05T19:58:57.805Z,9.55
2023-05-05T20:01:59.650Z,12.75
2023-05-05T20:05:01.545Z,9.82
2023-05-05T20:08:03.351Z,7.75
2023-05-05T20:11:05.135Z,7.53
2023-05-05T20:14:11.742Z,17.80
2023-05-05T20:17:13.536Z,9.50
2023-05-05T20:20:18.711Z,8.30
2023-05-05T20:23:20.427Z,9.93
2023-05-05T20:26:24.680Z,8.98
2023-05-05T20:29:26.910Z,9.63
2023-05-05T20:32:29.617Z,11.75
2023-05-05T20:35:31.340Z,11.95
2023-05-05T20:38:34.207Z,12.80
2023-05-05T20:41:38.032Z,7.90
2023-05-05T20:44:40.165Z,9.18
2023-05-05T20:47:41.989Z,10.50
2023-05-05T20:50:43.707Z,9.10
2023-05-05T20:53:46.274Z,9.40
2023-05-05T20:56:47.985Z,9.32
2023-05-05T20:59:49.789Z,8.63
2023-05-05T21:02:51.660Z,11.02
2023-05-05T21:05:54.249Z,11.13
2023-05-05T21:08:56.156Z,24.98
2023-05-05T21:11:57.922Z,10.90
2023-05-05T21:14:59.752Z,9.45
2023-05-05T21:18:01.613Z,9.52
2023-05-05T21:21:03.448Z,11.20
2023-05-05T21:24:07.744Z,11.80
2023-05-05T21:27:10.352Z,11.20
2023-05-05T21:30:12.734Z,11.63
2023-05-05T21:33:14.888Z,10.82
2023-05-05T21:36:19.576Z,11.93
2023-05-05T21:39:21.371Z,10.93
2023-05-05T21:42:24.359Z,16.60
2023-05-05T21:45:26.147Z,11.13
2023-05-05T21:48:28.239Z,11.73
2023-05-05T21:51:30.093Z,9.35
2023-05-05T21:54:31.827Z,12.23
2023-05-05T21:57:33.738Z,15.32
2023-05-05T22:00:35.635Z,14.38
2023-05-05T22:03:37.498Z,13.63
2023-05-05T22:06:39.253Z,9.43
2023-05-05T22:09:40.972Z,13.15
2023-05-05T22:12:42.765Z,12.07
2023-05-05T22:15:47.266Z,11.18
2023-05-05T22:18:49.882Z,11.43
2023-05-05T22:21:53.328Z,11.10
2023-05-05T22:24:55.373Z,11.02
2023-05-05T22:27:57.089Z,10.75
2023-05-05T22:30:58.933Z,11.85
2023-05-05T22:34:00.877Z,12.45
2023-05-05T22:37:02.584Z,20.25
2023-05-05T22:40:04.911Z,11.77
2023-05-05T22:43:06.616Z,11.05
2023-05-05T22:46:08.337Z,13.88
2023-05-05T22:49:10.374Z,13.75
2023-05-05T22:52:12.643Z,11.40
2023-05-05T22:55:15.095Z,14.98
2023-05-05T22:58:16.834Z,13.88
2023-05-05T23:01:18.656Z,12.50
2023-05-05T23:04:20.520Z,12.63
2023-05-05T23:07:22.345Z,11.35
2023-05-05T23:10:24.035Z,12.35
2023-05-05T23:13:25.844Z,17.45
2023-05-05T23:16:27.603Z,14.25
2023-05-05T23:19:32.092Z,15.45
2023-05-05T23:22:33.873Z,11.88
2023-05-05T23:25:35.906Z,12.00
2023-05-05T23:28:37.741Z,13.52
2023-05-05T23:31:39.453Z,15.30
2023-05-05T23:34:41.500Z,12.00
2023-05-05T23:37:43.201Z,13.18
2023-05-05T23:40:44.928Z,11.35
2023-05-05T23:43:46.864Z,10.57
2023-05-05T23:46:50.192Z,14.15
2023-05-05T23:49:53.289Z,13.60
2023-05-05T23:52:55.444Z,12.18
2023-05-05T23:55:57.269Z,11.05
2023-05-05T23:58:59.030Z,11.30
